Station Historical Data
Daily Summary for April 9, 2017 Units:  English    Metric   Both
« Previous Day
Next Day »
Daily Weekly Monthly Yearly Custom
  High: Low: Average:
Temperature: 71.3 °F 31.4 °F 54.4 °F
Dew Point: 38.2 °F 24.1 °F 31.7 °F
Humidity: 78% 25% 47%
Wind Speed: 11.0mph 0.0mph 2.9mph
Wind Gust: 18.0mph - -
Wind- - SSW
Pressure: 30.09 in 29.93 in -
Precipitation: 0.00 in    
Historical Graphs
 
 
Tabular Data for April 9, 2017
Time Temperature Dew Point Pressure Wind Wind Speed Wind Gust Humidity Rainfall Rate (Hourly)
00:04 37.6 °F 31.0 °F 30.05 in SW 2.0 mph 4.0 mph 77% 0.00 in
00:09 37.5 °F 30.9 °F 30.05 in SW 2.0 mph 4.0 mph 77% 0.00 in
00:14 37.3 °F 30.7 °F 30.05 in SSW 1.0 mph 3.0 mph 77% 0.00 in
00:19 37.2 °F 31.0 °F 30.05 in SW 2.0 mph 4.0 mph 78% 0.00 in
00:24 37.2 °F 30.7 °F 30.05 in SSW 2.0 mph 4.0 mph 77% 0.00 in
00:29 37.1 °F 30.9 °F 30.05 in SSW 2.0 mph 5.0 mph 78% 0.00 in
00:34 37.1 °F 30.9 °F 30.05 in SW 2.0 mph 6.0 mph 78% 0.00 in
00:39 37.0 °F 30.8 °F 30.05 in SW 2.0 mph 6.0 mph 78% 0.00 in
00:44 37.0 °F 30.8 °F 30.05 in SW 1.0 mph 3.0 mph 78% 0.00 in
00:49 37.0 °F 30.8 °F 30.05 in SW 1.0 mph 4.0 mph 78% 0.00 in
00:54 36.9 °F 30.7 °F 30.05 in SW 4.0 mph 5.0 mph 78% 0.00 in
00:59 37.0 °F 30.8 °F 30.05 in SW 1.0 mph 4.0 mph 78% 0.00 in
01:04 37.1 °F 30.6 °F 30.04 in SW 1.0 mph 4.0 mph 77% 0.00 in
01:09 37.1 °F 30.2 °F 30.04 in SW 2.0 mph 4.0 mph 76% 0.00 in
01:14 37.0 °F 30.1 °F 30.04 in SW 1.0 mph 3.0 mph 76% 0.00 in
01:19 36.8 °F 29.6 °F 30.04 in WSW 1.0 mph 3.0 mph 75% 0.00 in
01:24 36.8 °F 29.6 °F 30.04 in SW 1.0 mph 3.0 mph 75% 0.00 in
01:29 36.7 °F 29.2 °F 30.04 in Calm   3.0 mph 74% 0.00 in
01:34 36.3 °F 28.8 °F 30.04 in SW 1.0 mph 3.0 mph 74% 0.00 in
01:39 36.2 °F 28.7 °F 30.04 in Calm   3.0 mph 74% 0.00 in
01:44 36.1 °F 28.6 °F 30.04 in Calm   1.0 mph 74% 0.00 in
01:49 35.9 °F 28.4 °F 30.04 in Calm   2.0 mph 74% 0.00 in
01:54 35.5 °F 28.0 °F 30.04 in Calm   1.0 mph 74% 0.00 in
01:59 35.2 °F 27.7 °F 30.04 in Calm   1.0 mph 74% 0.00 in
02:04 34.9 °F 27.8 °F 30.04 in Calm     75% 0.00 in
02:09 34.7 °F 27.9 °F 30.04 in Calm     76% 0.00 in
02:14 34.6 °F 27.8 °F 30.04 in Calm   2.0 mph 76% 0.00 in
02:19 34.6 °F 27.2 °F 30.04 in South 1.0 mph 3.0 mph 74% 0.00 in
02:24 34.8 °F 26.4 °F 30.04 in South 1.0 mph 3.0 mph 71% 0.00 in
02:29 35.2 °F 25.7 °F 30.04 in Calm   2.0 mph 68% 0.00 in
02:34 35.3 °F 25.4 °F 30.04 in Calm   2.0 mph 67% 0.00 in
02:39 35.3 °F 25.1 °F 30.04 in Calm     66% 0.00 in
02:44 35.4 °F 24.8 °F 30.04 in Calm     65% 0.00 in
02:49 35.5 °F 24.5 °F 30.04 in Calm     64% 0.00 in
02:54 35.0 °F 24.8 °F 30.04 in Calm     66% 0.00 in
02:59 34.5 °F 24.3 °F 30.04 in Calm     66% 0.00 in
03:04 34.1 °F 24.3 °F 30.04 in Calm     67% 0.00 in
03:09 33.8 °F 24.4 °F 30.04 in Calm     68% 0.00 in
03:14 34.0 °F 24.5 °F 30.04 in Calm     68% 0.00 in
03:19 34.4 °F 24.9 °F 30.04 in Calm     68% 0.00 in
03:24 34.2 °F 24.4 °F 30.04 in Calm     67% 0.00 in
03:29 33.5 °F 24.8 °F 30.04 in Calm     70% 0.00 in
03:34 33.3 °F 24.6 °F 30.04 in Calm     70% 0.00 in
03:39 33.0 °F 24.6 °F 30.04 in Calm     71% 0.00 in
03:44 33.0 °F 24.6 °F 30.04 in Calm     71% 0.00 in
03:49 33.0 °F 24.6 °F 30.04 in Calm     71% 0.00 in
03:54 33.0 °F 24.6 °F 30.05 in Calm     71% 0.00 in
03:59 32.9 °F 24.9 °F 30.05 in Calm     72% 0.00 in
04:04 32.8 °F 24.4 °F 30.05 in Calm     71% 0.00 in
04:09 32.4 °F 24.4 °F 30.05 in Calm     72% 0.00 in
04:14 32.2 °F 24.2 °F 30.05 in Calm     72% 0.00 in
04:19 32.0 °F 24.3 °F 30.05 in Calm     73% 0.00 in
04:24 31.8 °F 24.5 °F 30.05 in Calm     74% 0.00 in
04:29 31.8 °F 24.1 °F 30.05 in Calm     73% 0.00 in
04:34 31.6 °F 24.3 °F 30.06 in Calm     74% 0.00 in
04:39 32.0 °F 24.6 °F 30.06 in Calm     74% 0.00 in
04:44 32.3 °F 24.9 °F 30.06 in Calm   1.0 mph 74% 0.00 in
04:49 32.4 °F 24.7 °F 30.06 in Calm   2.0 mph 73% 0.00 in
04:54 32.4 °F 24.7 °F 30.07 in Calm   2.0 mph 73% 0.00 in
04:59 32.2 °F 24.5 °F 30.07 in Calm     73% 0.00 in
05:04 31.7 °F 24.4 °F 30.07 in Calm     74% 0.00 in
05:09 31.4 °F 24.1 °F 30.07 in Calm     74% 0.00 in
05:14 31.4 °F 24.4 °F 30.07 in Calm     75% 0.00 in
05:19 31.6 °F 24.6 °F 30.07 in Calm     75% 0.00 in
05:24 31.4 °F 24.4 °F 30.07 in Calm     75% 0.00 in
05:29 31.9 °F 24.9 °F 30.07 in Calm     75% 0.00 in
05:34 32.1 °F 24.7 °F 30.07 in Calm     74% 0.00 in
05:39 31.9 °F 24.6 °F 30.07 in Calm     74% 0.00 in
05:44 31.7 °F 24.7 °F 30.07 in Calm     75% 0.00 in
05:49 31.4 °F 24.4 °F 30.07 in Calm     75% 0.00 in
05:54 31.6 °F 24.6 °F 30.06 in Calm     75% 0.00 in
05:59 31.9 °F 24.9 °F 30.06 in Calm     75% 0.00 in
06:04 32.0 °F 24.6 °F 30.06 in Calm     74% 0.00 in
06:09 31.8 °F 24.5 °F 30.07 in Calm     74% 0.00 in
06:14 31.6 °F 24.6 °F 30.07 in Calm     75% 0.00 in
06:19 31.6 °F 24.6 °F 30.07 in Calm     75% 0.00 in
06:24 31.7 °F 24.4 °F 30.07 in Calm     74% 0.00 in
06:29 32.1 °F 24.7 °F 30.07 in Calm     74% 0.00 in
06:34 32.1 °F 24.7 °F 30.07 in Calm     74% 0.00 in
06:39 32.4 °F 24.7 °F 30.07 in Calm     73% 0.00 in
06:44 32.7 °F 25.0 °F 30.07 in Calm     73% 0.00 in
06:49 32.4 °F 24.7 °F 30.07 in Calm     73% 0.00 in
06:54 32.1 °F 24.7 °F 30.07 in Calm     74% 0.00 in
06:59 32.1 °F 24.7 °F 30.07 in Calm     74% 0.00 in
07:04 32.2 °F 24.5 °F 30.07 in Calm     73% 0.00 in
07:09 32.4 °F 24.7 °F 30.07 in Calm     73% 0.00 in
07:14 32.8 °F 25.1 °F 30.07 in Calm     73% 0.00 in
07:19 33.0 °F 25.0 °F 30.07 in Calm     72% 0.00 in
07:24 33.4 °F 26.0 °F 30.08 in Calm     74% 0.00 in
07:29 33.7 °F 26.3 °F 30.08 in Calm     74% 0.00 in
07:34 34.4 °F 26.6 °F 30.08 in Calm     73% 0.00 in
07:39 35.4 °F 27.3 °F 30.08 in Calm     72% 0.00 in
07:44 36.6 °F 27.7 °F 30.08 in Calm     70% 0.00 in
07:49 38.1 °F 28.1 °F 30.08 in Calm     67% 0.00 in
07:54 39.1 °F 28.3 °F 30.08 in Calm     65% 0.00 in
07:59 40.1 °F 28.5 °F 30.08 in Calm     63% 0.00 in
08:04 41.0 °F 28.6 °F 30.09 in Calm     61% 0.00 in
08:09 42.0 °F 29.1 °F 30.09 in Calm     60% 0.00 in
08:14 43.1 °F 29.3 °F 30.08 in Calm     58% 0.00 in
08:19 44.1 °F 29.4 °F 30.08 in SSE 3.0 mph 4.0 mph 56% 0.00 in
08:24 45.0 °F 29.8 °F 30.08 in South 1.0 mph 4.0 mph 55% 0.00 in
08:29 46.0 °F 29.8 °F 30.08 in SSE 3.0 mph 4.0 mph 53% 0.00 in
08:34 46.9 °F 31.1 °F 30.08 in SSW 1.0 mph 3.0 mph 54% 0.00 in
08:39 47.8 °F 31.0 °F 30.08 in SE 2.0 mph 5.0 mph 52% 0.00 in
08:44 48.3 °F 31.5 °F 30.08 in South 2.0 mph 5.0 mph 52% 0.00 in
08:49 49.8 °F 32.4 °F 30.08 in SW 4.0 mph 6.0 mph 51% 0.00 in
08:54 50.9 °F 31.4 °F 30.08 in SSW 3.0 mph 7.0 mph 47% 0.00 in
08:59 51.6 °F 30.4 °F 30.08 in SSW 4.0 mph 7.0 mph 44% 0.00 in
09:04 52.3 °F 31.0 °F 30.08 in SSW 4.0 mph 9.0 mph 44% 0.00 in
09:09 52.8 °F 31.5 °F 30.08 in SSW 3.0 mph 9.0 mph 44% 0.00 in
09:14 53.1 °F 31.7 °F 30.08 in SSW 4.0 mph 8.0 mph 44% 0.00 in
09:19 53.6 °F 31.0 °F 30.08 in South 7.0 mph 12.0 mph 42% 0.00 in
09:24 54.1 °F 31.5 °F 30.08 in WSW 5.0 mph 7.0 mph 42% 0.00 in
09:29 54.8 °F 31.5 °F 30.07 in SSW 4.0 mph 8.0 mph 41% 0.00 in
09:34 55.4 °F 32.7 °F 30.08 in SSW 4.0 mph 8.0 mph 42% 0.00 in
09:39 55.7 °F 31.1 °F 30.08 in SSE 2.0 mph 7.0 mph 39% 0.00 in
09:44 56.5 °F 32.4 °F 30.08 in SW 1.0 mph 8.0 mph 40% 0.00 in
09:49 57.0 °F 32.9 °F 30.08 in SW 8.0 mph 8.0 mph 40% 0.00 in
09:54 57.5 °F 32.1 °F 30.07 in South 5.0 mph 11.0 mph 38% 0.00 in
09:59 57.7 °F 30.9 °F 30.07 in SSW 5.0 mph 12.0 mph 36% 0.00 in
10:04 58.1 °F 33.9 °F 30.07 in SSW 5.0 mph 12.0 mph 40% 0.00 in
10:09 58.6 °F 32.4 °F 30.07 in SSW 5.0 mph 11.0 mph 37% 0.00 in
10:14 58.9 °F 32.0 °F 30.07 in SSW 5.0 mph 12.0 mph 36% 0.00 in
10:19 59.3 °F 31.6 °F 30.07 in SSW 6.0 mph 12.0 mph 35% 0.00 in
10:24 59.6 °F 31.9 °F 30.07 in South 6.0 mph 12.0 mph 35% 0.00 in
10:29 60.0 °F 31.5 °F 30.08 in WSW 7.0 mph 11.0 mph 34% 0.00 in
10:34 60.1 °F 31.6 °F 30.07 in SSW 7.0 mph 14.0 mph 34% 0.00 in
10:39 60.5 °F 31.2 °F 30.07 in SSW 7.0 mph 16.0 mph 33% 0.00 in
10:44 60.9 °F 33.0 °F 30.08 in SSW 7.0 mph 16.0 mph 35% 0.00 in
10:49 61.3 °F 31.2 °F 30.08 in SW 6.0 mph 11.0 mph 32% 0.00 in
10:54 61.3 °F 30.4 °F 30.07 in WSW 6.0 mph 14.0 mph 31% 0.00 in
10:59 61.8 °F 31.6 °F 30.07 in SW 6.0 mph 14.0 mph 32% 0.00 in
11:04 62.0 °F 32.5 °F 30.07 in SSW 6.0 mph 13.0 mph 33% 0.00 in
11:09 62.4 °F 32.9 °F 30.07 in SSW 6.0 mph 15.0 mph 33% 0.00 in
11:14 62.5 °F 33.0 °F 30.07 in SSW 7.0 mph 16.0 mph 33% 0.00 in
11:19 62.7 °F 30.8 °F 30.06 in SW 4.0 mph 18.0 mph 30% 0.00 in
11:24 63.3 °F 32.9 °F 30.06 in South 7.0 mph 12.0 mph 32% 0.00 in
11:29 63.4 °F 32.2 °F 30.06 in SSW 5.0 mph 15.0 mph 31% 0.00 in
11:34 63.6 °F 31.6 °F 30.06 in WSW 11.0 mph 13.0 mph 30% 0.00 in
11:39 63.8 °F 32.6 °F 30.06 in SSW 7.0 mph 13.0 mph 31% 0.00 in
11:44 64.2 °F 34.5 °F 30.06 in SSW 6.0 mph 13.0 mph 33% 0.00 in
11:49 64.2 °F 32.1 °F 30.05 in SSW 7.0 mph 16.0 mph 30% 0.00 in
11:54 64.3 °F 34.6 °F 30.05 in South 7.0 mph 12.0 mph 33% 0.00 in
11:59 64.7 °F 30.8 °F 30.06 in SW 8.0 mph 13.0 mph 28% 0.00 in
12:04 64.9 °F 34.3 °F 30.05 in South 5.0 mph 14.0 mph 32% 0.00 in
12:09 65.3 °F 33.0 °F 30.05 in SSW 6.0 mph 14.0 mph 30% 0.00 in
12:14 65.5 °F 35.6 °F 30.05 in SW 7.0 mph 13.0 mph 33% 0.00 in
12:19 66.2 °F 36.2 °F 30.05 in SW 6.0 mph 13.0 mph 33% 0.00 in
12:24 66.4 °F 33.2 °F 30.04 in SW 5.0 mph 16.0 mph 29% 0.00 in
12:29 66.4 °F 34.8 °F 30.04 in NW 5.0 mph 11.0 mph 31% 0.00 in
12:34 66.7 °F 33.4 °F 30.05 in SSW 6.0 mph 11.0 mph 29% 0.00 in
12:39 66.9 °F 33.6 °F 30.05 in SSW 6.0 mph 13.0 mph 29% 0.00 in
12:44 67.1 °F 32.9 °F 30.05 in SW 6.0 mph 15.0 mph 28% 0.00 in
12:49 67.0 °F 32.8 °F 30.04 in SW 6.0 mph 15.0 mph 28% 0.00 in
12:54 67.0 °F 32.8 °F 30.04 in SW 7.0 mph 15.0 mph 28% 0.00 in
12:59 67.0 °F 32.8 °F 30.04 in SSW 7.0 mph 13.0 mph 28% 0.00 in
13:04 67.2 °F 33.8 °F 30.04 in SSW 7.0 mph 13.0 mph 29% 0.00 in
13:09 67.4 °F 33.1 °F 30.04 in SW 5.0 mph 13.0 mph 28% 0.00 in
13:14 67.8 °F 32.6 °F 30.04 in WSW 8.0 mph 14.0 mph 27% 0.00 in
13:19 68.1 °F 32.8 °F 30.03 in South 10.0 mph 14.0 mph 27% 0.00 in
13:24 68.1 °F 33.7 °F 30.03 in South 8.0 mph 13.0 mph 28% 0.00 in
13:29 68.3 °F 32.1 °F 30.03 in South 6.0 mph 14.0 mph 26% 0.00 in
13:34 68.3 °F 33.0 °F 30.03 in WSW 9.0 mph 14.0 mph 27% 0.00 in
13:39 68.5 °F 32.2 °F 30.03 in WSW 7.0 mph 14.0 mph 26% 0.00 in
13:44 68.5 °F 32.2 °F 30.03 in WSW 7.0 mph 14.0 mph 26% 0.00 in
13:49 68.7 °F 33.3 °F 30.03 in WSW 7.0 mph 14.0 mph 27% 0.00 in
13:54 68.4 °F 32.1 °F 30.03 in WSW 8.0 mph 17.0 mph 26% 0.00 in
13:59 68.3 °F 33.0 °F 30.03 in WSW 8.0 mph 17.0 mph 27% 0.00 in
14:04 68.4 °F 33.1 °F 30.02 in South 8.0 mph 14.0 mph 27% 0.00 in
14:09 68.5 °F 35.8 °F 30.02 in SW 7.0 mph 15.0 mph 30% 0.00 in
14:14 68.5 °F 34.1 °F 30.02 in SW 6.0 mph 15.0 mph 28% 0.00 in
14:19 68.6 °F 36.7 °F 30.03 in SW 5.0 mph 15.0 mph 31% 0.00 in
14:24 68.7 °F 34.3 °F 30.02 in West 8.0 mph 12.0 mph 28% 0.00 in
14:29 68.7 °F 34.3 °F 30.02 in South 7.0 mph 14.0 mph 28% 0.00 in
14:34 68.7 °F 35.1 °F 30.02 in SW 7.0 mph 11.0 mph 29% 0.00 in
14:39 69.0 °F 34.5 °F 30.02 in West 9.0 mph 12.0 mph 28% 0.00 in
14:44 69.3 °F 38.2 °F 30.02 in SW 6.0 mph 14.0 mph 32% 0.00 in
14:49 69.7 °F 37.7 °F 30.02 in SW 5.0 mph 14.0 mph 31% 0.00 in
14:54 70.1 °F 37.2 °F 30.01 in WSW 5.0 mph 10.0 mph 30% 0.00 in
14:59 70.1 °F 35.5 °F 30.01 in WSW 6.0 mph 14.0 mph 28% 0.00 in
15:04 70.3 °F 34.7 °F 30.01 in SW 6.0 mph 14.0 mph 27% 0.00 in
15:09 70.4 °F 35.7 °F 30.01 in South 3.0 mph 8.0 mph 28% 0.00 in
15:14 70.7 °F 37.7 °F 30.01 in SSW 3.0 mph 8.0 mph 30% 0.00 in
15:19 71.1 °F 36.3 °F 30.01 in SW 4.0 mph 6.0 mph 28% 0.00 in
15:24 71.2 °F 35.5 °F 30.00 in WSW 6.0 mph 10.0 mph 27% 0.00 in
15:29 71.3 °F 35.6 °F 30.00 in WSW 4.0 mph 11.0 mph 27% 0.00 in
15:34 71.1 °F 34.5 °F 30.00 in WSW 5.0 mph 9.0 mph 26% 0.00 in
15:39 71.0 °F 34.4 °F 30.00 in WSW 5.0 mph 10.0 mph 26% 0.00 in
15:44 70.9 °F 35.2 °F 30.00 in SW 6.0 mph 11.0 mph 27% 0.00 in
15:49 70.8 °F 34.2 °F 30.00 in SW 6.0 mph 11.0 mph 26% 0.00 in
15:54 70.6 °F 33.0 °F 29.99 in SW 6.0 mph 11.0 mph 25% 0.00 in
15:59 70.1 °F 33.6 °F 29.99 in WSW 6.0 mph 10.0 mph 26% 0.00 in
16:04 69.7 °F 33.3 °F 29.99 in WSW 5.0 mph 10.0 mph 26% 0.00 in
16:09 69.3 °F 31.9 °F 29.99 in SW 4.0 mph 8.0 mph 25% 0.00 in
16:14 68.9 °F 33.5 °F 29.99 in WSW 5.0 mph 7.0 mph 27% 0.00 in
16:19 68.7 °F 32.4 °F 29.99 in WSW 4.0 mph 8.0 mph 26% 0.00 in
16:24 68.6 °F 32.3 °F 29.98 in West 3.0 mph 7.0 mph 26% 0.00 in
16:29 68.6 °F 33.3 °F 29.98 in SW 6.0 mph 8.0 mph 27% 0.00 in
16:34 68.6 °F 32.3 °F 29.98 in SW 4.0 mph 8.0 mph 26% 0.00 in
16:39 68.6 °F 34.2 °F 29.98 in SW 4.0 mph 8.0 mph 28% 0.00 in
16:44 68.7 °F 32.4 °F 29.98 in SW 3.0 mph 6.0 mph 26% 0.00 in
16:49 68.8 °F 33.4 °F 29.98 in SW 3.0 mph 6.0 mph 27% 0.00 in
16:54 68.9 °F 33.5 °F 29.97 in SW 3.0 mph 6.0 mph 27% 0.00 in
16:59 69.1 °F 33.7 °F 29.97 in WSW 2.0 mph 5.0 mph 27% 0.00 in
17:04 69.3 °F 32.9 °F 29.97 in WSW 2.0 mph 5.0 mph 26% 0.00 in
17:09 69.4 °F 33.0 °F 29.97 in SW 2.0 mph 5.0 mph 26% 0.00 in
17:14 69.5 °F 33.1 °F 29.97 in SSW 3.0 mph 5.0 mph 26% 0.00 in
17:19 69.4 °F 32.0 °F 29.97 in SSW 3.0 mph 7.0 mph 25% 0.00 in
17:24 69.6 °F 34.1 °F 29.97 in WSW 2.0 mph 5.0 mph 27% 0.00 in
17:29 70.0 °F 35.4 °F 29.96 in SSW 2.0 mph 5.0 mph 28% 0.00 in
17:34 70.3 °F 34.7 °F 29.96 in SW 2.0 mph 6.0 mph 27% 0.00 in
17:39 70.6 °F 35.9 °F 29.96 in SSW 3.0 mph 6.0 mph 28% 0.00 in
17:44 70.9 °F 35.2 °F 29.96 in South 3.0 mph 7.0 mph 27% 0.00 in
17:49 70.9 °F 35.2 °F 29.96 in South 3.0 mph 7.0 mph 27% 0.00 in
17:54 71.0 °F 35.3 °F 29.96 in South 2.0 mph 4.0 mph 27% 0.00 in
17:59 71.0 °F 34.4 °F 29.96 in SSW 1.0 mph 4.0 mph 26% 0.00 in
18:04 71.0 °F 34.4 °F 29.95 in South 3.0 mph 5.0 mph 26% 0.00 in
18:09 70.9 °F 35.2 °F 29.95 in South 3.0 mph 5.0 mph 27% 0.00 in
18:14 70.9 °F 36.1 °F 29.95 in South 2.0 mph 5.0 mph 28% 0.00 in
18:19 70.8 °F 36.1 °F 29.95 in South 2.0 mph 4.0 mph 28% 0.00 in
18:24 70.8 °F 36.1 °F 29.95 in South 2.0 mph 3.0 mph 28% 0.00 in
18:29 70.7 °F 36.0 °F 29.95 in Calm   3.0 mph 28% 0.00 in
18:34 70.5 °F 35.8 °F 29.95 in Calm     28% 0.00 in
18:39 70.4 °F 36.6 °F 29.94 in Calm     29% 0.00 in
18:44 70.2 °F 35.5 °F 29.95 in Calm   3.0 mph 28% 0.00 in
18:49 70.0 °F 37.1 °F 29.94 in South 1.0 mph 4.0 mph 30% 0.00 in
18:54 69.9 °F 36.2 °F 29.94 in Calm   3.0 mph 29% 0.00 in
18:59 69.6 °F 36.8 °F 29.94 in South 1.0 mph 3.0 mph 30% 0.00 in
19:04 69.4 °F 36.6 °F 29.94 in SSE 1.0 mph 3.0 mph 30% 0.00 in
19:09 69.1 °F 36.3 °F 29.94 in South 1.0 mph 4.0 mph 30% 0.00 in
19:14 68.9 °F 37.0 °F 29.94 in South 2.0 mph 4.0 mph 31% 0.00 in
19:19 68.7 °F 36.8 °F 29.94 in South 2.0 mph 4.0 mph 31% 0.00 in
19:24 68.6 °F 36.7 °F 29.94 in South 3.0 mph 9.0 mph 31% 0.00 in
19:29 68.5 °F 37.5 °F 29.94 in SSW 3.0 mph 9.0 mph 32% 0.00 in
19:34 68.5 °F 37.5 °F 29.94 in SSW 4.0 mph 7.0 mph 32% 0.00 in
19:39 68.3 °F 37.3 °F 29.94 in SSW 4.0 mph 7.0 mph 32% 0.00 in
19:44 68.2 °F 37.2 °F 29.94 in SSW 3.0 mph 7.0 mph 32% 0.00 in
19:49 67.9 °F 36.9 °F 29.94 in South 2.0 mph 7.0 mph 32% 0.00 in
19:54 67.7 °F 37.5 °F 29.94 in South 2.0 mph 5.0 mph 33% 0.00 in
19:59 67.4 °F 37.3 °F 29.94 in SSW 3.0 mph 5.0 mph 33% 0.00 in
20:04 67.1 °F 37.0 °F 29.93 in South 1.0 mph 4.0 mph 33% 0.00 in
20:09 66.7 °F 37.4 °F 29.93 in South 2.0 mph 4.0 mph 34% 0.00 in
20:14 66.4 °F 37.2 °F 29.93 in South 2.0 mph 6.0 mph 34% 0.00 in
20:19 66.0 °F 37.5 °F 29.93 in South 2.0 mph 6.0 mph 35% 0.00 in
20:24 65.7 °F 37.3 °F 29.93 in South 1.0 mph 2.0 mph 35% 0.00 in
20:29 65.3 °F 36.9 °F 29.93 in SSE 2.0 mph 4.0 mph 35% 0.00 in
20:34 64.9 °F 37.3 °F 29.93 in South 2.0 mph 3.0 mph 36% 0.00 in
20:39 64.5 °F 36.9 °F 29.93 in SSE 2.0 mph 3.0 mph 36% 0.00 in
20:44 64.2 °F 37.4 °F 29.93 in South 2.0 mph 3.0 mph 37% 0.00 in
20:49 63.9 °F 37.1 °F 29.93 in South 2.0 mph 3.0 mph 37% 0.00 in
20:54 63.7 °F 36.9 °F 29.93 in Calm   3.0 mph 37% 0.00 in
20:59 63.6 °F 37.5 °F 29.94 in Calm     38% 0.00 in
21:04 63.3 °F 37.2 °F 29.94 in South 1.0 mph 1.0 mph 38% 0.00 in
21:09 62.9 °F 37.5 °F 29.94 in SSE 1.0 mph 3.0 mph 39% 0.00 in
21:14 62.5 °F 37.2 °F 29.94 in South 2.0 mph 5.0 mph 39% 0.00 in
21:19 62.2 °F 37.6 °F 29.94 in South 2.0 mph 5.0 mph 40% 0.00 in
21:24 62.1 °F 37.5 °F 29.94 in South 2.0 mph 6.0 mph 40% 0.00 in
21:29 62.0 °F 37.4 °F 29.94 in SSW 2.0 mph 5.0 mph 40% 0.00 in
21:34 62.0 °F 36.7 °F 29.94 in South 2.0 mph 7.0 mph 39% 0.00 in
21:39 62.2 °F 36.9 °F 29.94 in SSE 2.0 mph 7.0 mph 39% 0.00 in
21:44 62.4 °F 37.1 °F 29.94 in South 4.0 mph 7.0 mph 39% 0.00 in
21:49 62.8 °F 36.8 °F 29.94 in South 4.0 mph 11.0 mph 38% 0.00 in
21:54 63.1 °F 36.4 °F 29.93 in South 4.0 mph 11.0 mph 37% 0.00 in
21:59 63.3 °F 36.6 °F 29.93 in South 4.0 mph 10.0 mph 37% 0.00 in
22:04 63.5 °F 36.0 °F 29.93 in SSE 8.0 mph 9.0 mph 36% 0.00 in
22:09 63.6 °F 36.8 °F 29.93 in SSW 5.0 mph 8.0 mph 37% 0.00 in
22:14 63.7 °F 36.2 °F 29.93 in South 4.0 mph 11.0 mph 36% 0.00 in
22:19 63.8 °F 36.3 °F 29.93 in South 5.0 mph 8.0 mph 36% 0.00 in
22:24 63.8 °F 36.3 °F 29.93 in SSW 7.0 mph 12.0 mph 36% 0.00 in
22:29 63.8 °F 36.3 °F 29.93 in South 4.0 mph 11.0 mph 36% 0.00 in
22:34 63.8 °F 35.6 °F 29.93 in SSE 3.0 mph 11.0 mph 35% 0.00 in
22:39 63.8 °F 35.6 °F 29.93 in SSW 3.0 mph 8.0 mph 35% 0.00 in
22:44 63.7 °F 35.5 °F 29.93 in South 5.0 mph 10.0 mph 35% 0.00 in
22:49 63.8 °F 35.6 °F 29.93 in South 5.0 mph 10.0 mph 35% 0.00 in
22:54 63.6 °F 35.4 °F 29.93 in South 5.0 mph 10.0 mph 35% 0.00 in
22:59 63.7 °F 35.5 °F 29.93 in South 5.0 mph 11.0 mph 35% 0.00 in
23:04 63.6 °F 35.4 °F 29.94 in SSW 4.0 mph 12.0 mph 35% 0.00 in
23:09 63.6 °F 35.4 °F 29.94 in South 2.0 mph 8.0 mph 35% 0.00 in
23:14 63.6 °F 35.4 °F 29.94 in SSW 4.0 mph 8.0 mph 35% 0.00 in
23:19 63.4 °F 35.2 °F 29.94 in WSW 3.0 mph 8.0 mph 35% 0.00 in
23:24 63.4 °F 35.2 °F 29.94 in SSW 3.0 mph 5.0 mph 35% 0.00 in
23:29 63.3 °F 35.2 °F 29.94 in South 5.0 mph 9.0 mph 35% 0.00 in
23:34 63.3 °F 35.2 °F 29.94 in SSW 2.0 mph 10.0 mph 35% 0.00 in
23:39 63.2 °F 35.1 °F 29.94 in South 2.0 mph 6.0 mph 35% 0.00 in
23:44 63.0 °F 34.9 °F 29.94 in SSW 3.0 mph 7.0 mph 35% 0.00 in
23:49 63.0 °F 34.2 °F 29.95 in SSW 3.0 mph 8.0 mph 34% 0.00 in
23:54 63.0 °F 34.9 °F 29.95 in SSW 3.0 mph 8.0 mph 35% 0.00 in
23:59 62.9 °F 34.8 °F 29.95 in South 2.0 mph 7.0 mph 35% 0.00 in
Buffalo, New York, USA
Compliments of Weather Underground - 2.5 mb